Time;durP1;ratioP1;P1;durP2;ratioP2;P2;SDS_P1;SDS_P2;PMS_P1;PMS_P2;Temp;Humidity;BMP_temperature;BMP_pressure;BME280_temperature;BME280_humidity;BME280_pressure;Samples;Min_cycle;Max_cycle;Signal;HPM_P1;HPM_P2
2023/03/09 00:02:14;;;;;;;32.67;17.67;;;;;;;;;;5033610;28;20091;-76
2023/03/09 00:04:43;;;;;;;33.58;17.27;;;;;;;;;;5034392;28;20048;-75
2023/03/09 00:07:11;;;;;;;31.13;17.13;;;;;;;;;;5032243;28;20068;-75
2023/03/09 00:09:37;;;;;;;33.40;17.15;;;;;;;;;;5029753;28;20045;-76
2023/03/09 00:12:07;;;;;;;32.13;16.13;;;;;;;;;;5028390;28;20049;-76
2023/03/09 00:14:33;;;;;;;33.10;16.83;;;;;;;;;;5027523;28;20054;-77
2023/03/09 00:17:00;;;;;;;33.95;16.85;;;;;;;;;;5027440;28;20673;-77
2023/03/09 00:19:26;;;;;;;29.10;15.65;;;;;;;;;;5026815;28;20064;-77
2023/03/09 00:21:54;;;;;;;34.50;16.55;;;;;;;;;;5045210;28;20504;-77
2023/03/09 00:24:26;;;;;;;30.67;16.15;;;;;;;;;;5045407;28;20525;-77
2023/03/09 00:26:54;;;;;;;32.55;16.58;;;;;;;;;;5039612;28;20061;-77
2023/03/09 00:29:22;;;;;;;31.83;16.50;;;;;;;;;;5035615;28;20140;-77
2023/03/09 00:31:48;;;;;;;31.50;16.63;;;;;;;;;;5027577;28;20056;-77
2023/03/09 00:34:16;;;;;;;36.38;17.92;;;;;;;;;;5042403;28;20568;-77
2023/03/09 00:36:42;;;;;;;48.10;20.00;;;;;;;;;;5024597;28;20045;-77
2023/03/09 00:39:10;;;;;;;54.17;21.92;;;;;;;;;;5025396;28;20041;-77
2023/03/09 00:41:37;;;;;;;65.40;24.17;;;;;;;;;;5025539;28;20037;-77
2023/03/09 00:44:04;;;;;;;52.33;21.42;;;;;;;;;;5026340;28;20047;-77
2023/03/09 00:46:33;;;;;;;48.42;21.55;;;;;;;;;;5027907;28;20049;-77
2023/03/09 00:49:00;;;;;;;50.13;19.75;;;;;;;;;;4985835;28;1154009;-77
2023/03/09 00:51:26;;;;;;;39.95;19.30;;;;;;;;;;5022359;28;20041;-77
2023/03/09 00:53:54;;;;;;;43.97;19.90;;;;;;;;;;5028106;28;20124;-76
2023/03/09 00:56:22;;;;;;;37.13;18.55;;;;;;;;;;5024087;28;20057;-77
2023/03/09 00:58:48;;;;;;;41.72;20.15;;;;;;;;;;5027702;28;20151;-76
2023/03/09 01:01:18;;;;;;;40.13;18.88;;;;;;;;;;5026137;28;20052;-77
2023/03/09 01:03:45;;;;;;;37.30;18.90;;;;;;;;;;5028040;28;20077;-77
2023/03/09 01:06:12;;;;;;;41.05;18.98;;;;;;;;;;5025179;28;20049;-77
2023/03/09 01:08:39;;;;;;;41.63;19.10;;;;;;;;;;5026611;28;20060;-77
2023/03/09 01:11:06;;;;;;;43.03;19.45;;;;;;;;;;5026790;28;20409;-77
2023/03/09 01:13:33;;;;;;;40.33;19.55;;;;;;;;;;5029101;28;20063;-77
2023/03/09 01:16:00;;;;;;;37.20;19.08;;;;;;;;;;5029460;28;20037;-77
2023/03/09 01:18:26;;;;;;;40.20;19.20;;;;;;;;;;5055012;28;20046;-76
2023/03/09 01:20:54;;;;;;;39.30;19.23;;;;;;;;;;5009113;28;20124;-75
2023/03/09 01:23:21;;;;;;;40.88;19.42;;;;;;;;;;5027438;28;20037;-77
2023/03/09 01:25:48;;;;;;;37.15;18.45;;;;;;;;;;5007523;28;20045;-77
2023/03/09 01:28:15;;;;;;;37.17;18.63;;;;;;;;;;5014253;28;20507;-77
2023/03/09 01:30:41;;;;;;;37.67;19.50;;;;;;;;;;5025855;28;20053;-77
2023/03/09 01:33:11;;;;;;;39.30;19.45;;;;;;;;;;5059690;28;20045;-77
2023/03/09 01:35:41;;;;;;;39.20;19.17;;;;;;;;;;5027298;28;20091;-78
2023/03/09 01:38:10;;;;;;;35.70;17.85;;;;;;;;;;5024545;28;20042;-77
2023/03/09 01:40:39;;;;;;;33.80;17.90;;;;;;;;;;5026691;28;20163;-77
2023/03/09 01:43:24;;;;;;;33.53;17.88;;;;;;;;;;5041186;28;20045;-77
2023/03/09 01:46:10;;;;;;;36.20;18.67;;;;;;;;;;5045349;28;20041;-77
2023/03/09 01:48:36;;;;;;;36.90;18.20;;;;;;;;;;5046544;28;20563;-77
2023/03/09 01:51:03;;;;;;;35.13;17.20;;;;;;;;;;5065187;28;20283;-77
2023/03/09 01:53:30;;;;;;;36.85;18.23;;;;;;;;;;5047167;28;20056;-76
2023/03/09 01:55:57;;;;;;;33.90;16.70;;;;;;;;;;5060654;28;20397;-77
2023/03/09 01:58:27;;;;;;;32.47;17.05;;;;;;;;;;5044399;28;20064;-77
2023/03/09 02:00:54;;;;;;;35.17;17.15;;;;;;;;;;5047115;28;20045;-77
2023/03/09 02:03:23;;;;;;;32.17;16.48;;;;;;;;;;5061172;28;20045;-76
2023/03/09 02:05:53;;;;;;;36.72;17.55;;;;;;;;;;5027989;28;20448;-76
2023/03/09 02:08:22;;;;;;;38.05;18.40;;;;;;;;;;5046292;28;20037;-76
2023/03/09 02:10:54;;;;;;;35.42;17.38;;;;;;;;;;5030064;28;20689;-76
2023/03/09 02:13:24;;;;;;;35.13;17.55;;;;;;;;;;5046370;28;20479;-76
2023/03/09 02:15:50;;;;;;;36.95;17.38;;;;;;;;;;5030993;28;20045;-75
2023/03/09 02:18:17;;;;;;;33.97;16.77;;;;;;;;;;5029847;28;20049;-77
2023/03/09 02:20:53;;;;;;;35.17;18.02;;;;;;;;;;5029926;28;20128;-76
2023/03/09 02:23:43;;;;;;;33.97;16.85;;;;;;;;;;5030424;28;20120;-77
2023/03/09 02:26:22;;;;;;;34.90;17.58;;;;;;;;;;5025852;28;20037;-75
2023/03/09 02:28:50;;;;;;;34.95;18.00;;;;;;;;;;5027206;28;20041;-78
2023/03/09 02:31:17;;;;;;;34.42;17.35;;;;;;;;;;5035087;28;20041;-77
2023/03/09 02:33:43;;;;;;;35.00;17.85;;;;;;;;;;5027219;28;20095;-76
2023/03/09 02:36:11;;;;;;;33.38;17.33;;;;;;;;;;5011967;28;20064;-76
2023/03/09 02:38:44;;;;;;;36.20;18.27;;;;;;;;;;5048941;28;20045;-76
2023/03/09 02:41:12;;;;;;;37.03;17.83;;;;;;;;;;5029375;28;20064;-76
2023/03/09 02:43:52;;;;;;;39.20;18.60;;;;;;;;;;5014164;28;20047;-77
2023/03/09 02:46:21;;;;;;;38.78;18.40;;;;;;;;;;5049077;28;20055;-77
2023/03/09 02:48:48;;;;;;;35.28;18.42;;;;;;;;;;5048904;28;20060;-76
2023/03/09 02:51:15;;;;;;;37.25;17.60;;;;;;;;;;5033834;28;20413;-76
2023/03/09 02:53:45;;;;;;;39.50;19.52;;;;;;;;;;5046214;28;20053;-77
2023/03/09 02:56:13;;;;;;;38.47;18.58;;;;;;;;;;5046312;28;20460;-77
2023/03/09 02:58:45;;;;;;;38.20;18.67;;;;;;;;;;5026166;28;20068;-76
2023/03/09 03:01:14;;;;;;;37.80;18.58;;;;;;;;;;5059307;28;20040;-77
2023/03/09 03:03:40;;;;;;;38.65;19.33;;;;;;;;;;5046747;28;20048;-76
2023/03/09 03:06:07;;;;;;;41.35;19.50;;;;;;;;;;5044634;28;20495;-76
2023/03/09 03:08:42;;;;;;;38.95;18.52;;;;;;;;;;5046628;28;20102;-76
2023/03/09 03:11:11;;;;;;;40.08;19.08;;;;;;;;;;5029427;28;20037;-76
2023/03/09 03:13:39;;;;;;;35.67;18.02;;;;;;;;;;5046156;28;20048;-76
2023/03/09 03:16:11;;;;;;;39.47;18.45;;;;;;;;;;5048379;28;20063;-76
2023/03/09 03:18:38;;;;;;;37.00;18.52;;;;;;;;;;5080573;28;20051;-77
2023/03/09 03:21:05;;;;;;;37.95;17.55;;;;;;;;;;5045993;28;20099;-77
2023/03/09 03:23:36;;;;;;;33.58;17.70;;;;;;;;;;5054926;28;20138;-78
2023/03/09 03:26:04;;;;;;;39.00;18.10;;;;;;;;;;5046771;28;20077;-78
2023/03/09 03:28:31;;;;;;;34.95;17.17;;;;;;;;;;5027608;28;20037;-77
2023/03/09 03:31:03;;;;;;;35.38;17.85;;;;;;;;;;5029867;28;20052;-77
2023/03/09 03:33:29;;;;;;;38.47;18.95;;;;;;;;;;5047580;28;20067;-77
2023/03/09 03:35:57;;;;;;;40.20;18.85;;;;;;;;;;5028463;28;20055;-78
2023/03/09 03:38:24;;;;;;;37.17;17.90;;;;;;;;;;5028371;28;20110;-77
2023/03/09 03:40:54;;;;;;;33.63;17.27;;;;;;;;;;5061757;28;20048;-78
2023/03/09 03:43:25;;;;;;;35.25;17.27;;;;;;;;;;5028671;28;20048;-78
2023/03/09 03:45:53;;;;;;;34.38;17.30;;;;;;;;;;5029937;28;20691;-77
2023/03/09 03:48:21;;;;;;;32.40;16.23;;;;;;;;;;5030305;28;20132;-77
2023/03/09 03:50:48;;;;;;;31.38;16.15;;;;;;;;;;5048816;28;20049;-77
2023/03/09 03:53:15;;;;;;;27.20;14.68;;;;;;;;;;5042883;28;20053;-78
2023/03/09 03:55:42;;;;;;;25.52;13.82;;;;;;;;;;5026821;28;20411;-78
2023/03/09 03:58:09;;;;;;;23.23;12.88;;;;;;;;;;5027325;28;20052;-78
2023/03/09 04:00:40;;;;;;;19.63;11.30;;;;;;;;;;5010712;28;20596;-77
2023/03/09 04:03:10;;;;;;;19.02;10.38;;;;;;;;;;5010164;28;20053;-77
2023/03/09 04:05:43;;;;;;;18.85;10.70;;;;;;;;;;5008419;28;20505;-77
2023/03/09 04:08:11;;;;;;;20.35;10.80;;;;;;;;;;5009153;28;20556;-78
2023/03/09 04:10:38;;;;;;;21.70;12.02;;;;;;;;;;5008650;28;20173;-78
2023/03/09 04:13:06;;;;;;;22.70;11.70;;;;;;;;;;5011525;28;20053;-77
2023/03/09 04:15:34;;;;;;;22.40;11.60;;;;;;;;;;5011738;28;20041;-76
2023/03/09 04:18:03;;;;;;;25.10;12.32;;;;;;;;;;5028360;28;20106;-78
2023/03/09 04:20:32;;;;;;;22.27;11.63;;;;;;;;;;5012639;28;20042;-77
2023/03/09 04:22:59;;;;;;;25.40;12.55;;;;;;;;;;5013640;28;20040;-77
2023/03/09 04:25:27;;;;;;;25.52;12.35;;;;;;;;;;5013415;28;20044;-78
2023/03/09 04:27:54;;;;;;;24.65;12.52;;;;;;;;;;5050385;28;20075;-79
2023/03/09 04:30:30;;;;;;;24.33;12.45;;;;;;;;;;5000498;28;20046;-76
2023/03/09 04:32:59;;;;;;;24.73;12.65;;;;;;;;;;5015326;28;20041;-77
2023/03/09 04:35:25;;;;;;;26.02;12.55;;;;;;;;;;5026183;28;20121;-76
2023/03/09 04:38:01;;;;;;;25.88;12.73;;;;;;;;;;5024216;28;20042;-77
2023/03/09 04:40:28;;;;;;;27.13;13.50;;;;;;;;;;5027423;28;20049;-76
2023/03/09 04:42:57;;;;;;;23.88;12.40;;;;;;;;;;5027155;28;20529;-77
2023/03/09 04:45:24;;;;;;;25.67;12.20;;;;;;;;;;5027566;28;20065;-77
2023/03/09 04:47:52;;;;;;;24.65;12.88;;;;;;;;;;5027557;28;20041;-77
2023/03/09 04:50:20;;;;;;;23.67;12.90;;;;;;;;;;5026535;28;20538;-77
2023/03/09 04:52:51;;;;;;;24.75;12.30;;;;;;;;;;5027157;28;20143;-76
2023/03/09 04:55:18;;;;;;;24.52;12.30;;;;;;;;;;5009401;28;20516;-77
2023/03/09 04:57:45;;;;;;;22.95;12.25;;;;;;;;;;5027642;28;20076;-77
2023/03/09 05:00:12;;;;;;;23.45;12.32;;;;;;;;;;5010393;28;20048;-77
2023/03/09 05:02:38;;;;;;;21.75;11.40;;;;;;;;;;5026712;28;20153;-76
2023/03/09 05:05:06;;;;;;;20.50;10.52;;;;;;;;;;5026448;28;20128;-77
2023/03/09 05:07:33;;;;;;;22.30;11.75;;;;;;;;;;5025565;28;20057;-76
2023/03/09 05:10:03;;;;;;;22.00;11.45;;;;;;;;;;5025277;28;20128;-77
2023/03/09 05:12:33;;;;;;;23.95;12.00;;;;;;;;;;5011437;28;20403;-77
2023/03/09 05:15:03;;;;;;;23.13;11.77;;;;;;;;;;5030361;28;20362;-76
2023/03/09 05:17:32;;;;;;;22.00;11.70;;;;;;;;;;5027854;28;20057;-76
2023/03/09 05:19:59;;;;;;;23.00;11.90;;;;;;;;;;5030541;28;20041;-77
2023/03/09 05:22:26;;;;;;;21.50;11.73;;;;;;;;;;5028333;28;20049;-78
2023/03/09 05:24:52;;;;;;;22.83;11.48;;;;;;;;;;5052080;28;21650;-79
2023/03/09 05:27:19;;;;;;;21.90;11.43;;;;;;;;;;5061222;28;20050;-79
2023/03/09 05:29:46;;;;;;;23.85;12.05;;;;;;;;;;5029085;28;20046;-78
2023/03/09 05:32:13;;;;;;;26.23;12.93;;;;;;;;;;5028450;28;20066;-77
2023/03/09 05:34:40;;;;;;;26.02;13.07;;;;;;;;;;5026100;28;20521;-77
2023/03/09 05:37:07;;;;;;;25.00;12.50;;;;;;;;;;5059107;28;20045;-77
2023/03/09 05:39:36;;;;;;;27.52;13.57;;;;;;;;;;5041955;28;20464;-77
2023/03/09 05:42:03;;;;;;;27.08;13.82;;;;;;;;;;5026741;28;20045;-77
2023/03/09 05:44:33;;;;;;;26.35;13.52;;;;;;;;;;5026229;28;20099;-78
2023/03/09 05:47:04;;;;;;;33.25;15.93;;;;;;;;;;5026075;28;20390;-77
2023/03/09 05:49:30;;;;;;;37.30;16.70;;;;;;;;;;5026168;28;20042;-77
2023/03/09 05:52:00;;;;;;;31.50;15.40;;;;;;;;;;5024807;28;20128;-77
2023/03/09 05:54:28;;;;;;;29.23;15.10;;;;;;;;;;5024179;28;20053;-77
2023/03/09 05:56:58;;;;;;;31.25;14.90;;;;;;;;;;5024865;28;20044;-77
2023/03/09 05:59:25;;;;;;;26.17;13.25;;;;;;;;;;5026403;28;20495;-77
2023/03/09 06:01:52;;;;;;;25.15;12.77;;;;;;;;;;5060413;28;20042;-77
2023/03/09 06:04:22;;;;;;;27.92;13.25;;;;;;;;;;5010591;28;20080;-77
2023/03/09 06:06:53;;;;;;;26.95;12.50;;;;;;;;;;5042300;28;20548;-77
2023/03/09 06:09:25;;;;;;;25.42;12.57;;;;;;;;;;5025418;28;20057;-77
2023/03/09 06:11:53;;;;;;;27.33;12.90;;;;;;;;;;5024950;28;20432;-75
2023/03/09 06:14:20;;;;;;;26.27;12.55;;;;;;;;;;5024854;28;20064;-78
2023/03/09 06:16:47;;;;;;;25.35;11.68;;;;;;;;;;5058003;28;20089;-77
2023/03/09 06:19:15;;;;;;;27.70;12.85;;;;;;;;;;5025491;28;20118;-76
2023/03/09 06:21:44;;;;;;;25.33;12.82;;;;;;;;;;5024229;28;20061;-77
2023/03/09 06:24:11;;;;;;;26.13;12.52;;;;;;;;;;5023877;28;20061;-77
2023/03/09 06:26:39;;;;;;;26.73;13.75;;;;;;;;;;5056506;28;20041;-77
2023/03/09 06:29:10;;;;;;;28.63;13.73;;;;;;;;;;5025809;28;20060;-77
2023/03/09 06:31:41;;;;;;;30.63;15.10;;;;;;;;;;5025777;28;20066;-77
2023/03/09 06:34:08;;;;;;;29.30;14.77;;;;;;;;;;5027655;28;20041;-78
2023/03/09 06:36:35;;;;;;;29.83;14.13;;;;;;;;;;5020190;28;20554;-78
2023/03/09 06:39:02;;;;;;;26.98;14.13;;;;;;;;;;5024740;28;20046;-77
2023/03/09 06:41:33;;;;;;;30.77;14.65;;;;;;;;;;5024703;28;20042;-78
2023/03/09 06:44:09;;;;;;;33.15;15.85;;;;;;;;;;5058292;28;20096;-78
2023/03/09 06:46:37;;;;;;;29.27;14.98;;;;;;;;;;5027241;28;20068;-78
2023/03/09 06:49:04;;;;;;;31.85;15.20;;;;;;;;;;5025810;28;20052;-78
2023/03/09 06:51:31;;;;;;;32.33;15.38;;;;;;;;;;5024376;28;20402;-78
2023/03/09 06:53:57;;;;;;;33.58;15.52;;;;;;;;;;5025006;28;20434;-77
2023/03/09 06:56:29;;;;;;;31.10;15.13;;;;;;;;;;5024556;28;20468;-78
2023/03/09 06:58:56;;;;;;;35.97;16.40;;;;;;;;;;5025605;28;20088;-77
2023/03/09 07:01:24;;;;;;;39.97;17.23;;;;;;;;;;5026266;28;20286;-78
2023/03/09 07:03:54;;;;;;;54.28;20.58;;;;;;;;;;5028558;28;20045;-78
2023/03/09 07:06:22;;;;;;;62.83;17.30;;;;;;;;;;5045344;28;20072;-77
2023/03/09 07:08:48;;;;;;;52.40;17.80;;;;;;;;;;5086339;28;20068;-79
2023/03/09 07:11:15;;;;;;;37.40;13.52;;;;;;;;;;5068996;28;20052;-78
2023/03/09 07:13:41;;;;;;;46.40;12.18;;;;;;;;;;5070703;28;20041;-78
2023/03/09 07:16:08;;;;;;;47.85;12.10;;;;;;;;;;5049540;28;20072;-77
2023/03/09 07:18:35;;;;;;;66.40;11.73;;;;;;;;;;5046184;28;20083;-77
2023/03/09 07:21:02;;;;;;;68.03;11.40;;;;;;;;;;5044517;28;20045;-78
2023/03/09 07:23:31;;;;;;;67.63;10.30;;;;;;;;;;5046984;28;20079;-77
2023/03/09 07:26:04;;;;;;;101.55;10.43;;;;;;;;;;5043270;28;20037;-77
2023/03/09 07:28:31;;;;;;;57.95;9.95;;;;;;;;;;5018084;28;20038;-76
2023/03/09 07:30:58;;;;;;;95.70;11.63;;;;;;;;;;5024644;28;20084;-77
2023/03/09 07:33:25;;;;;;;65.18;11.23;;;;;;;;;;5026616;28;20168;-77
2023/03/09 07:35:51;;;;;;;78.65;9.75;;;;;;;;;;5025448;28;20464;-77
2023/03/09 07:38:18;;;;;;;96.88;9.75;;;;;;;;;;5025614;28;20125;-77
2023/03/09 07:40:44;;;;;;;56.17;10.68;;;;;;;;;;5025440;28;20053;-77
2023/03/09 07:43:12;;;;;;;64.63;9.43;;;;;;;;;;5025735;28;20521;-77
2023/03/09 07:45:49;;;;;;;39.05;10.25;;;;;;;;;;5028031;28;20053;-78
2023/03/09 07:48:15;;;;;;;30.50;9.82;;;;;;;;;;5029086;28;20119;-78
2023/03/09 07:50:43;;;;;;;37.42;10.27;;;;;;;;;;5048832;28;20075;-78
2023/03/09 07:53:09;;;;;;;44.50;10.05;;;;;;;;;;5049913;28;20079;-78
2023/03/09 07:55:36;;;;;;;40.97;9.98;;;;;;;;;;5048298;28;20522;-77
2023/03/09 07:58:03;;;;;;;36.28;10.43;;;;;;;;;;5049166;28;20582;-77
2023/03/09 08:00:31;;;;;;;40.85;11.82;;;;;;;;;;5050197;28;20044;-76
2023/03/09 08:02:58;;;;;;;50.13;11.20;;;;;;;;;;5031964;28;20059;-76
2023/03/09 08:05:25;;;;;;;58.72;12.68;;;;;;;;;;5048897;28;20052;-77
2023/03/09 08:07:51;;;;;;;49.17;12.82;;;;;;;;;;5048543;28;20056;-77
2023/03/09 08:10:18;;;;;;;38.50;12.82;;;;;;;;;;5048129;28;20071;-77
2023/03/09 08:12:49;;;;;;;47.45;14.30;;;;;;;;;;5048319;28;20052;-78
2023/03/09 08:15:18;;;;;;;72.80;16.23;;;;;;;;;;5050288;28;20128;-78
2023/03/09 08:17:45;;;;;;;47.17;15.30;;;;;;;;;;5048885;28;20052;-76
2023/03/09 08:20:11;;;;;;;37.75;15.75;;;;;;;;;;5049151;28;20425;-77
2023/03/09 08:22:38;;;;;;;50.40;15.63;;;;;;;;;;5048775;28;20045;-77
2023/03/09 08:25:06;;;;;;;46.60;16.20;;;;;;;;;;5026025;28;20122;-77
2023/03/09 08:27:39;;;;;;;42.80;16.42;;;;;;;;;;5049036;28;20051;-77
2023/03/09 08:30:07;;;;;;;38.63;14.93;;;;;;;;;;5030767;28;20057;-77
2023/03/09 08:32:33;;;;;;;40.17;16.35;;;;;;;;;;5029126;28;20055;-77
2023/03/09 08:35:00;;;;;;;37.15;14.43;;;;;;;;;;5027966;28;20493;-78
2023/03/09 08:37:26;;;;;;;38.78;14.63;;;;;;;;;;5043219;28;20041;-77
2023/03/09 08:39:53;;;;;;;33.45;13.70;;;;;;;;;;5028699;28;20050;-77
2023/03/09 08:42:21;;;;;;;29.45;13.15;;;;;;;;;;5029017;28;20041;-77
2023/03/09 08:44:47;;;;;;;32.28;13.55;;;;;;;;;;5028519;28;20493;-77
2023/03/09 08:47:14;;;;;;;31.33;13.48;;;;;;;;;;5028269;28;20056;-77
2023/03/09 08:49:41;;;;;;;26.17;11.43;;;;;;;;;;5027126;28;20356;-77
2023/03/09 08:52:08;;;;;;;23.00;9.80;;;;;;;;;;5028253;28;20076;-77
2023/03/09 08:54:35;;;;;;;18.20;8.27;;;;;;;;;;5028688;28;20045;-78
2023/03/09 08:57:01;;;;;;;20.13;8.90;;;;;;;;;;5026011;28;20045;-77
2023/03/09 08:59:28;;;;;;;12.73;6.80;;;;;;;;;;5028720;28;20041;-78
2023/03/09 09:01:54;;;;;;;13.55;6.70;;;;;;;;;;5029388;28;20409;-78
2023/03/09 09:04:21;;;;;;;12.20;6.68;;;;;;;;;;5028729;28;20046;-76
2023/03/09 09:06:48;;;;;;;11.65;6.15;;;;;;;;;;5025969;28;20056;-78
2023/03/09 09:09:14;;;;;;;9.40;5.35;;;;;;;;;;5028278;28;20057;-76
2023/03/09 09:11:41;;;;;;;8.65;5.28;;;;;;;;;;5027779;28;20041;-76
2023/03/09 09:14:07;;;;;;;8.48;5.13;;;;;;;;;;5026951;28;20128;-76
2023/03/09 09:16:34;;;;;;;10.57;4.85;;;;;;;;;;5027809;28;20485;-76
2023/03/09 09:19:02;;;;;;;6.38;3.55;;;;;;;;;;5026933;28;20080;-77
2023/03/09 09:21:28;;;;;;;5.80;3.65;;;;;;;;;;5028092;28;20080;-76
2023/03/09 09:23:55;;;;;;;7.30;3.33;;;;;;;;;;5028193;28;20049;-76
2023/03/09 09:26:21;;;;;;;5.25;3.20;;;;;;;;;;5024510;28;20045;-77
2023/03/09 09:28:48;;;;;;;4.60;2.92;;;;;;;;;;5028252;28;20132;-76
2023/03/09 09:31:17;;;;;;;4.72;3.30;;;;;;;;;;5047286;28;20056;-77
2023/03/09 09:33:45;;;;;;;6.45;3.35;;;;;;;;;;5080481;28;20131;-76
2023/03/09 09:36:14;;;;;;;5.07;3.25;;;;;;;;;;5045454;28;20041;-77
2023/03/09 09:38:42;;;;;;;5.13;3.40;;;;;;;;;;5048264;28;20045;-78
2023/03/09 09:41:22;;;;;;;6.40;3.53;;;;;;;;;;5045433;28;20430;-77
2023/03/09 09:43:50;;;;;;;5.47;3.10;;;;;;;;;;5046305;28;20389;-78
2023/03/09 09:46:17;;;;;;;5.50;3.55;;;;;;;;;;5047874;28;20053;-78
2023/03/09 09:48:45;;;;;;;5.15;3.05;;;;;;;;;;5046730;28;20190;-78
2023/03/09 09:51:31;;;;;;;8.00;3.72;;;;;;;;;;5046247;28;20041;-77
2023/03/09 09:54:11;;;;;;;6.97;3.65;;;;;;;;;;5046989;28;20268;-76
2023/03/09 09:56:43;;;;;;;7.50;3.97;;;;;;;;;;5045704;28;20037;-76
2023/03/09 09:59:13;;;;;;;6.38;4.00;;;;;;;;;;5030513;28;20068;-77
2023/03/09 10:01:57;;;;;;;8.45;4.35;;;;;;;;;;5053406;28;20385;-77
2023/03/09 10:04:36;;;;;;;7.60;4.70;;;;;;;;;;5031296;28;20037;-77
2023/03/09 10:07:13;;;;;;;6.88;4.55;;;;;;;;;;5046970;28;20505;-78
2023/03/09 10:09:43;;;;;;;8.95;4.20;;;;;;;;;;5051490;28;20099;-76
2023/03/09 10:12:18;;;;;;;7.20;4.68;;;;;;;;;;5049320;28;20041;-77
2023/03/09 10:15:06;;;;;;;7.03;4.85;;;;;;;;;;5030331;28;20091;-76
2023/03/09 10:17:37;;;;;;;11.85;4.90;;;;;;;;;;5047404;28;20404;-75
2023/03/09 10:20:16;;;;;;;8.38;5.07;;;;;;;;;;5058503;28;20041;-77
2023/03/09 10:22:47;;;;;;;9.88;5.68;;;;;;;;;;5032463;28;20124;-77
2023/03/09 10:25:16;;;;;;;9.45;5.93;;;;;;;;;;5047666;28;20132;-77
2023/03/09 10:27:46;;;;;;;11.20;5.90;;;;;;;;;;5045788;28;20034;-77
2023/03/09 10:30:51;;;;;;;8.32;5.38;;;;;;;;;;5033185;28;20045;-77
2023/03/09 10:33:24;;;;;;;9.07;5.25;;;;;;;;;;5008049;28;20076;-77
2023/03/09 10:35:56;;;;;;;8.25;5.22;;;;;;;;;;5001485;28;20033;-78
2023/03/09 10:38:23;;;;;;;9.32;5.22;;;;;;;;;;5024167;28;20045;-78
2023/03/09 10:40:51;;;;;;;9.05;5.28;;;;;;;;;;5025897;28;20087;-77
2023/03/09 10:43:18;;;;;;;11.18;6.28;;;;;;;;;;5024200;28;20044;-78
2023/03/09 10:45:45;;;;;;;8.25;5.40;;;;;;;;;;5024942;28;20049;-78
2023/03/09 10:48:18;;;;;;;9.35;5.60;;;;;;;;;;5026153;28;20490;-76
2023/03/09 10:50:54;;;;;;;9.70;5.38;;;;;;;;;;5019691;28;20399;-77
2023/03/09 10:53:23;;;;;;;9.77;6.05;;;;;;;;;;5026942;28;20048;-77
2023/03/09 10:55:51;;;;;;;8.52;5.72;;;;;;;;;;5007489;28;20050;-76
2023/03/09 10:58:31;;;;;;;10.68;6.10;;;;;;;;;;5026023;28;20140;-77
2023/03/09 11:01:03;;;;;;;11.73;5.88;;;;;;;;;;5025917;28;20056;-77
2023/03/09 11:03:32;;;;;;;10.70;6.32;;;;;;;;;;5024458;28;20518;-77
2023/03/09 11:06:08;;;;;;;10.73;6.38;;;;;;;;;;5024546;28;20536;-77
2023/03/09 11:08:35;;;;;;;10.43;6.55;;;;;;;;;;5025419;28;20060;-78
2023/03/09 11:11:24;;;;;;;10.23;6.53;;;;;;;;;;5025928;28;20051;-77
2023/03/09 11:13:51;;;;;;;13.10;7.03;;;;;;;;;;5007592;28;20053;-77
2023/03/09 11:16:21;;;;;;;12.25;6.45;;;;;;;;;;5025388;28;20046;-78
2023/03/09 11:18:50;;;;;;;10.70;7.10;;;;;;;;;;5026544;28;20111;-77
2023/03/09 11:21:21;;;;;;;14.07;7.00;;;;;;;;;;5028398;28;20052;-77
2023/03/09 11:23:50;;;;;;;11.45;6.85;;;;;;;;;;4995447;28;20049;-78
2023/03/09 11:26:23;;;;;;;12.02;6.68;;;;;;;;;;5010117;28;20064;-78
2023/03/09 11:29:04;;;;;;;10.73;6.30;;;;;;;;;;5041926;28;20138;-77
2023/03/09 11:31:31;;;;;;;10.40;6.40;;;;;;;;;;5023756;28;20508;-77
2023/03/09 11:33:58;;;;;;;8.48;5.95;;;;;;;;;;5029975;28;20073;-78
2023/03/09 11:36:44;;;;;;;9.75;6.03;;;;;;;;;;5028374;28;20053;-78
2023/03/09 11:39:19;;;;;;;12.02;5.85;;;;;;;;;;5029193;28;20575;-77
2023/03/09 11:41:46;;;;;;;;;;;;;;;;;;5028778;28;20065;-77
2023/03/09 11:44:20;;;;;;;11.25;6.10;;;;;;;;;;5028424;28;19954;-78
2023/03/09 11:46:47;;;;;;;10.13;5.95;;;;;;;;;;5028708;28;20129;-77
2023/03/09 11:49:19;;;;;;;10.00;5.72;;;;;;;;;;5029525;28;20472;-78
2023/03/09 11:51:49;;;;;;;8.20;5.20;;;;;;;;;;5027673;28;20065;-77
2023/03/09 11:54:15;;;;;;;8.20;5.38;;;;;;;;;;5029824;28;20445;-77
2023/03/09 11:56:44;;;;;;;7.30;4.82;;;;;;;;;;5029166;28;20479;-78
2023/03/09 11:59:31;;;;;;;6.38;4.07;;;;;;;;;;5049344;28;20041;-77
2023/03/09 12:02:04;;;;;;;7.85;4.32;;;;;;;;;;5031248;28;20555;-77
2023/03/09 12:04:31;;;;;;;7.20;4.40;;;;;;;;;;5049516;28;20048;-77
2023/03/09 12:07:01;;;;;;;7.07;3.95;;;;;;;;;;5048049;28;20131;-77
2023/03/09 12:09:32;;;;;;;8.98;4.38;;;;;;;;;;5030620;28;20076;-77
2023/03/09 12:12:01;;;;;;;7.47;4.57;;;;;;;;;;5049579;28;20160;-77
2023/03/09 12:14:32;;;;;;;7.82;3.97;;;;;;;;;;5049160;28;20034;-77
2023/03/09 12:17:03;;;;;;;6.50;4.43;;;;;;;;;;5048751;28;20146;-76
2023/03/09 12:19:31;;;;;;;7.78;4.57;;;;;;;;;;5030654;28;20065;-78
2023/03/09 12:22:15;;;;;;;8.02;4.38;;;;;;;;;;5030975;28;20071;-76
2023/03/09 12:24:43;;;;;;;7.63;4.53;;;;;;;;;;5026845;28;20040;-77
2023/03/09 12:27:15;;;;;;;7.97;4.35;;;;;;;;;;5047602;28;20041;-76
2023/03/09 12:29:47;;;;;;;7.82;4.28;;;;;;;;;;5042083;28;20041;-77
2023/03/09 12:32:16;;;;;;;8.65;4.75;;;;;;;;;;5029789;28;20382;-77
2023/03/09 12:34:44;;;;;;;6.45;4.32;;;;;;;;;;5052335;28;20075;-77
2023/03/09 12:37:28;;;;;;;8.80;4.20;;;;;;;;;;5045849;28;20465;-78
2023/03/09 12:40:20;;;;;;;10.70;5.05;;;;;;;;;;5044954;28;20049;-78
2023/03/09 12:42:48;;;;;;;10.02;4.63;;;;;;;;;;5047455;28;20114;-78
2023/03/09 12:45:18;;;;;;;8.25;5.03;;;;;;;;;;5048446;28;20041;-77
2023/03/09 12:47:50;;;;;;;10.65;5.65;;;;;;;;;;5047769;28;20135;-78
2023/03/09 12:50:19;;;;;;;13.40;5.68;;;;;;;;;;5027591;28;20460;-78
2023/03/09 12:53:04;;;;;;;10.70;6.00;;;;;;;;;;5027678;28;20052;-78
2023/03/09 12:55:37;;;;;;;13.00;6.30;;;;;;;;;;5026359;28;20128;-77
2023/03/09 12:58:19;;;;;;;10.40;6.47;;;;;;;;;;5027061;28;20921;-77
2023/03/09 13:00:51;;;;;;;13.77;7.25;;;;;;;;;;5072119;28;20045;-77
2023/03/09 13:03:22;;;;;;;11.23;6.85;;;;;;;;;;5080505;28;20052;-77
2023/03/09 13:05:50;;;;;;;11.48;6.53;;;;;;;;;;5046863;28;20132;-77
2023/03/09 13:08:28;;;;;;;15.52;7.63;;;;;;;;;;5079402;28;20048;-77
2023/03/09 13:11:13;;;;;;;16.17;7.88;;;;;;;;;;5046222;28;20055;-77
2023/03/09 13:13:45;;;;;;;12.43;6.40;;;;;;;;;;5046292;28;20056;-77
2023/03/09 13:16:30;;;;;;;11.52;6.18;;;;;;;;;;5045953;28;20048;-77
2023/03/09 13:18:57;;;;;;;;;;;;;;;;;;5047995;28;20045;-77
2023/03/09 13:21:56;;;;;;;8.48;5.32;;;;;;;;;;5046965;28;19931;-77
2023/03/09 13:24:37;;;;;;;9.15;5.30;;;;;;;;;;5012082;28;20079;-77
2023/03/09 13:27:10;;;;;;;9.13;5.63;;;;;;;;;;5046468;28;20049;-77
2023/03/09 13:29:43;;;;;;;13.23;6.65;;;;;;;;;;5039897;28;20055;-77
2023/03/09 13:32:31;;;;;;;11.70;6.15;;;;;;;;;;5027815;28;20052;-77
2023/03/09 13:34:59;;;;;;;9.35;5.40;;;;;;;;;;5027038;28;20433;-77
2023/03/09 13:37:27;;;;;;;10.52;5.70;;;;;;;;;;5057590;28;20053;-78
2023/03/09 13:40:03;;;;;;;8.75;5.85;;;;;;;;;;5025970;28;20052;-78
2023/03/09 13:42:31;;;;;;;10.18;5.68;;;;;;;;;;5057930;28;20057;-77
2023/03/09 13:44:58;;;;;;;6.55;4.45;;;;;;;;;;5027414;28;20549;-78
2023/03/09 13:47:26;;;;;;;6.60;4.10;;;;;;;;;;5058612;28;20064;-77
2023/03/09 13:49:54;;;;;;;5.35;3.72;;;;;;;;;;5059889;28;20124;-77
2023/03/09 13:52:20;;;;;;;5.35;2.67;;;;;;;;;;5059128;28;20396;-76
2023/03/09 13:54:54;;;;;;;8.90;3.20;;;;;;;;;;5024436;28;20053;-77
2023/03/09 13:57:30;;;;;;;4.68;2.75;;;;;;;;;;5026347;28;20056;-76
2023/03/09 14:00:11;;;;;;;5.13;2.50;;;;;;;;;;5026973;28;20041;-76
2023/03/09 14:02:38;;;;;;;4.13;2.78;;;;;;;;;;5046782;28;20518;-77
2023/03/09 14:05:16;;;;;;;5.47;2.50;;;;;;;;;;5058645;28;20065;-78
2023/03/09 14:08:04;;;;;;;3.67;2.40;;;;;;;;;;5072450;28;20163;-77
2023/03/09 14:10:34;;;;;;;2.90;2.08;;;;;;;;;;5051334;28;20095;-77
2023/03/09 14:13:03;;;;;;;4.40;2.20;;;;;;;;;;5051088;28;20445;-77
2023/03/09 14:15:30;;;;;;;5.63;2.25;;;;;;;;;;5028590;28;20859;-76
2023/03/09 14:17:58;;;;;;;3.53;2.00;;;;;;;;;;5020128;28;20045;-75
2023/03/09 14:20:36;;;;;;;2.90;2.10;;;;;;;;;;5026033;28;20057;-76
2023/03/09 14:23:16;;;;;;;8.00;2.70;;;;;;;;;;5029200;28;20044;-77
2023/03/09 14:25:43;;;;;;;7.53;3.30;;;;;;;;;;5021513;28;20116;-77
2023/03/09 14:28:24;;;;;;;5.57;4.00;;;;;;;;;;5022320;28;20553;-77
2023/03/09 14:30:53;;;;;;;6.53;3.85;;;;;;;;;;5015099;28;20045;-77
2023/03/09 14:33:22;;;;;;;5.93;3.55;;;;;;;;;;5021192;28;20057;-76
2023/03/09 14:35:49;;;;;;;7.00;3.92;;;;;;;;;;5025631;28;20041;-77
2023/03/09 14:38:19;;;;;;;6.22;3.67;;;;;;;;;;5027132;28;20455;-76
2023/03/09 14:40:46;;;;;;;9.55;3.88;;;;;;;;;;5022479;28;20068;-77
2023/03/09 14:43:20;;;;;;;5.82;3.75;;;;;;;;;;5023140;28;20048;-76